Ho Chi Minh City International Airport

Airport
ICAO code: 
VVTS
IATA Code: 
SGN
Summary
ICAO Region: 
APAC
Territory: 
Location: 
Ho Chi Minh City, Ho Chi Minh City
Serving: 
Ho Chi Minh City
Elevation: 
33 ft
Coordinates: 
Aerial View: 
10° 49' 14.016" N, 106° 39' 38.988" E
Metar
Observation
VVTS 021900Z VRB03KT 9999 FEW017 SCT040 23/19 Q1011 NOSIG
Station
Ho Chi Minh
Date/Time
2021-12-02 19:00:00
Wind speed
03 kts
Lowest cloud amount
few clouds
Temperature
23°C
Dew point
19°C
Humidity
78%
QNH
1011 hPa
Weather condition
n/a

Description

International airport serving Ho Chi Minh City, Vietnam.

Climatology

Tropical savannah climate (Köppen climate classification Aw)

Runways

Designator Length Width Surface Rops
07L/25R 3048 45 CON Yes/Yes
07R/25L 3800 45 CON Yes/Yes
Airport map: 
Aerial View: 

SKYbrary Partners:

Safety knowledge contributed by: